Time;durP1;ratioP1;P1;durP2;ratioP2;P2;SDS_P1;SDS_P2;PMS_P1;PMS_P2;Temp;Humidity;BMP_temperature;BMP_pressure;BME280_temperature;BME280_humidity;BME280_pressure;Samples;Min_cycle;Max_cycle;Signal;HPM_P1;HPM_P2
2022/07/18 00:02:21;;;;;;;4.80;2.50;;;537.70;1766.40;;;;;;5112936;28;20096;-78
2022/07/18 00:04:47;;;;;;;4.50;1.98;;;537.60;1766.40;;;;;;5112542;28;20069;-79
2022/07/18 00:07:14;;;;;;;10.98;2.55;;;537.70;1766.40;;;;;;5094444;28;20423;-78
2022/07/18 00:09:40;;;;;;;4.07;1.92;;;512.90;1740.80;;;;;;5124375;28;20037;-78
2022/07/18 00:12:07;;;;;;;9.50;2.22;;;537.60;1766.40;;;;;;5094315;28;20046;-78
2022/07/18 00:14:34;;;;;;;8.82;2.50;;;512.80;1766.40;;;;;;5112769;28;20030;-78
2022/07/18 00:17:00;;;;;;;6.00;2.53;;;512.70;1766.40;;;;;;5094521;28;20110;-77
2022/07/18 00:19:26;;;;;;;6.85;2.17;;;512.60;1766.40;;;;;;5094277;28;20079;-78
2022/07/18 00:21:52;;;;;;;9.45;2.20;;;512.70;1766.40;;;;;;5115592;28;20008;-77
2022/07/18 00:24:18;;;;;;;6.07;2.05;;;512.80;1740.80;;;;;;5098068;28;20031;-78
2022/07/18 00:26:44;;;;;;;4.70;2.10;;;537.60;1766.40;;;;;;5116235;28;20020;-77
2022/07/18 00:29:09;;;;;;;4.80;2.40;;;537.80;1766.40;;;;;;5115547;28;20477;-77
2022/07/18 00:31:36;;;;;;;6.53;1.95;;;537.80;1740.80;;;;;;5097866;28;20027;-78
2022/07/18 00:34:02;;;;;;;4.43;2.42;;;537.90;1740.80;;;;;;5116182;28;20027;-78
2022/07/18 00:36:29;;;;;;;5.57;2.15;;;538.00;1740.80;;;;;;5116059;28;20488;-78
2022/07/18 00:38:55;;;;;;;7.00;2.22;;;538.00;1740.80;;;;;;5116113;28;20365;-78
2022/07/18 00:41:21;;;;;;;3.60;1.95;;;538.10;1740.80;;;;;;5115895;28;20347;-78
2022/07/18 00:43:47;;;;;;;8.02;2.10;;;538.10;1715.20;;;;;;5115975;28;20558;-77
2022/07/18 00:46:13;;;;;;;11.07;2.60;;;538.20;1740.80;;;;;;5116067;28;20095;-77
2022/07/18 00:48:40;;;;;;;5.45;2.20;;;538.30;1740.80;;;;;;5097574;28;20168;-78
2022/07/18 00:51:06;;;;;;;4.00;2.15;;;538.20;1766.40;;;;;;5115840;28;20020;-78
2022/07/18 00:53:32;;;;;;;3.65;1.85;;;563.40;1843.20;;;;;;5113099;28;20030;-78
2022/07/18 00:56:00;;;;;;;5.88;2.05;;;538.10;1920.00;;;;;;5115637;28;20077;-78
2022/07/18 00:58:26;;;;;;;8.13;2.58;;;538.00;1945.60;;;;;;5115513;28;20061;-78
2022/07/18 01:03:36;;;;;;;5.93;1.95;;;538.00;1996.80;;;;;;5113940;28;20035;-79
2022/07/18 01:06:03;;;;;;;3.58;1.90;;;538.00;1971.20;;;;;;5097413;28;20023;-78
2022/07/18 01:08:29;;;;;;;6.68;2.55;;;538.00;1996.80;;;;;;5115612;28;20015;-79
2022/07/18 01:10:55;;;;;;;3.92;2.13;;;538.00;2048.00;;;;;;5115734;28;20023;-79
2022/07/18 01:13:21;;;;;;;3.22;2.13;;;537.90;2048.00;;;;;;5096808;28;20036;-80
2022/07/18 01:15:47;;;;;;;12.43;2.13;;;537.80;2073.60;;;;;;5097099;28;20036;-79
2022/07/18 01:18:13;;;;;;;4.72;1.90;;;537.60;2073.60;;;;;;5113023;28;20027;-80
2022/07/18 01:20:39;;;;;;;5.47;2.13;;;512.90;2048.00;;;;;;5097172;28;20027;-79
2022/07/18 01:23:05;;;;;;;4.90;2.45;;;512.90;2048.00;;;;;;5115101;28;20020;-79
2022/07/18 01:25:31;;;;;;;4.22;2.03;;;512.80;2022.40;;;;;;5115106;28;20036;-79
2022/07/18 01:27:57;;;;;;;3.67;1.67;;;512.80;2022.40;;;;;;5096518;27;20074;-79
2022/07/18 01:30:24;;;;;;;4.07;2.05;;;512.80;2022.40;;;;;;5126208;27;20472;-77
2022/07/18 01:33:00;;;;;;;4.50;2.20;;;512.70;2022.40;;;;;;5119514;27;20380;-77
2022/07/18 01:35:28;;;;;;;3.97;2.28;;;512.70;2048.00;;;;;;5114949;28;20020;-78
2022/07/18 01:37:56;;;;;;;5.07;2.00;;;512.70;2073.60;;;;;;5094024;28;20024;-78
2022/07/18 01:40:23;;;;;;;7.35;1.88;;;512.50;2124.80;;;;;;5096581;28;20035;-78
2022/07/18 01:42:49;;;;;;;5.22;2.38;;;512.60;2099.20;;;;;;5114836;28;20043;-78
2022/07/18 01:45:15;;;;;;;3.70;2.03;;;512.70;2099.20;;;;;;5096554;28;20050;-78
2022/07/18 01:47:41;;;;;;;5.25;2.13;;;512.70;2099.20;;;;;;5114862;28;20465;-77
2022/07/18 01:50:09;;;;;;;3.78;1.77;;;512.70;2099.20;;;;;;5096111;28;20023;-78
2022/07/18 01:52:35;;;;;;;9.48;2.40;;;512.50;2099.20;;;;;;5093870;28;20100;-79
2022/07/18 01:55:01;;;;;;;4.20;2.25;;;512.50;2099.20;;;;;;5096387;28;20065;-78
2022/07/18 01:57:27;;;;;;;5.82;2.28;;;512.40;2099.20;;;;;;5114295;28;20048;-78
2022/07/18 01:59:52;;;;;;;10.85;2.17;;;512.30;2073.60;;;;;;5095411;28;20128;-77
2022/07/18 02:02:18;;;;;;;5.75;2.25;;;512.10;2048.00;;;;;;5096023;28;20650;-78
2022/07/18 02:04:59;;;;;;;3.65;1.80;;;487.30;2048.00;;;;;;5114453;28;20019;-78
2022/07/18 02:07:31;;;;;;;5.93;2.50;;;487.30;1971.20;;;;;;5113152;28;20057;-77
2022/07/18 02:09:58;;;;;;;4.63;2.30;;;;;;;;;;5100379;27;20041;-75
2022/07/18 02:12:24;;;;;;;7.18;2.38;;;487.10;1894.40;;;;;;5124297;27;20087;-79
2022/07/18 02:14:50;;;;;;;4.95;2.33;;;487.10;1868.80;;;;;;5114357;28;20020;-78
2022/07/18 02:17:15;;;;;;;7.50;2.10;;;487.10;1843.20;;;;;;5093270;28;20515;-77
2022/07/18 02:19:41;;;;;;;4.43;1.95;;;487.10;1817.60;;;;;;5113961;28;20032;-79
2022/07/18 02:22:07;;;;;;;7.07;2.47;;;487.10;1817.60;;;;;;5095059;28;20035;-79
2022/07/18 02:24:33;;;;;;;4.28;2.10;;;487.20;1817.60;;;;;;5113943;28;20020;-78
2022/07/18 02:27:00;;;;;;;6.03;2.28;;;487.20;1817.60;;;;;;5114131;28;20020;-78
2022/07/18 02:29:26;;;;;;;6.15;2.10;;;487.30;1817.60;;;;;;5113915;28;20111;-78
2022/07/18 02:31:52;;;;;;;6.32;1.98;;;487.20;1843.20;;;;;;5119715;27;20074;-78
2022/07/18 02:34:18;;;;;;;9.30;2.67;;;512.00;1843.20;;;;;;5116611;27;20032;-78
2022/07/18 02:36:43;;;;;;;9.57;2.10;;;512.10;1843.20;;;;;;5113822;28;20030;-79
2022/07/18 02:39:10;;;;;;;4.07;2.08;;;512.20;1792.00;;;;;;5113932;28;20033;-78
2022/07/18 02:41:36;;;;;;;8.30;2.38;;;512.20;1817.60;;;;;;5113743;28;20061;-79
2022/07/18 02:44:03;;;;;;;3.67;2.25;;;512.20;1792.00;;;;;;5112642;28;20030;-79
2022/07/18 02:46:29;;;;;;;4.55;2.40;;;512.00;1817.60;;;;;;5095595;28;20024;-79
2022/07/18 02:48:55;;;;;;;6.10;2.47;;;512.00;1843.20;;;;;;5095333;28;20020;-78
2022/07/18 02:51:21;;;;;;;3.40;1.83;;;512.00;1817.60;;;;;;5113747;28;20019;-79
2022/07/18 02:53:46;;;;;;;6.70;2.45;;;512.00;1817.60;;;;;;5097430;27;20538;-79
2022/07/18 02:56:12;;;;;;;5.35;2.05;;;512.10;1817.60;;;;;;5119796;27;20043;-79
2022/07/18 02:58:38;;;;;;;5.00;2.10;;;512.10;1817.60;;;;;;5110773;28;20568;-78
2022/07/18 03:01:04;;;;;;;6.00;2.30;;;512.10;1792.00;;;;;;5113610;28;20045;-79
2022/07/18 03:03:29;;;;;;;8.63;2.50;;;512.20;1792.00;;;;;;5113552;28;20027;-77
2022/07/18 03:05:55;;;;;;;6.25;2.40;;;512.10;1792.00;;;;;;5095355;28;20415;-78
2022/07/18 03:08:21;;;;;;;5.47;2.28;;;487.30;1817.60;;;;;;5113411;28;20028;-78
2022/07/18 03:10:47;;;;;;;6.95;2.33;;;487.00;1843.20;;;;;;5113437;28;20020;-78
2022/07/18 03:13:13;;;;;;;9.15;2.90;;;486.90;1894.40;;;;;;5113296;28;20511;-78
2022/07/18 03:15:40;;;;;;;5.55;2.15;;;486.60;1920.00;;;;;;5110538;28;20363;-78
2022/07/18 03:18:05;;;;;;;11.80;2.95;;;486.70;1920.00;;;;;;5113414;28;20024;-77
2022/07/18 03:20:32;;;;;;;5.22;2.08;;;;;;;;;;5113137;28;20028;-78
2022/07/18 03:22:57;;;;;;;4.75;2.00;;;486.40;1920.00;;;;;;5095122;28;20043;-78
2022/07/18 03:25:24;;;;;;;4.30;1.77;;;486.50;1920.00;;;;;;5095051;28;20116;-78
2022/07/18 03:27:49;;;;;;;7.10;2.25;;;461.70;1920.00;;;;;;5113136;28;20027;-78
2022/07/18 03:30:15;;;;;;;7.38;2.45;;;486.40;1945.60;;;;;;5113354;28;20042;-79
2022/07/18 03:32:41;;;;;;;6.95;2.60;;;486.50;1920.00;;;;;;5113405;28;20008;-78
2022/07/18 03:35:07;;;;;;;5.93;2.42;;;486.40;1945.60;;;;;;5112847;28;20092;-79
2022/07/18 03:37:32;;;;;;;6.43;2.72;;;461.50;1945.60;;;;;;5113408;28;20020;-79
2022/07/18 03:39:58;;;;;;;7.55;2.42;;;461.60;1945.60;;;;;;5113166;28;20032;-78
2022/07/18 03:42:24;;;;;;;9.50;2.88;;;461.50;1996.80;;;;;;5113456;28;20460;-79
2022/07/18 03:44:50;;;;;;;9.15;3.28;;;461.50;1971.20;;;;;;5113138;28;20019;-79
2022/07/18 03:47:16;;;;;;;10.20;3.50;;;461.60;1945.60;;;;;;5113144;28;20361;-79
2022/07/18 03:49:41;;;;;;;7.30;3.17;;;461.70;1920.00;;;;;;5113404;28;20397;-79
2022/07/18 03:52:07;;;;;;;6.78;3.50;;;461.70;1868.80;;;;;;5113284;28;20016;-80
2022/07/18 03:54:33;;;;;;;9.55;3.10;;;461.70;1817.60;;;;;;5113372;28;20023;-79
2022/07/18 03:56:58;;;;;;;7.72;3.20;;;461.70;1817.60;;;;;;5116518;28;20043;-79
2022/07/18 03:59:24;;;;;;;6.00;2.75;;;461.70;1817.60;;;;;;5116851;28;20027;-79
2022/07/18 04:01:50;;;;;;;6.10;2.95;;;486.40;1792.00;;;;;;5097929;28;20026;-78
2022/07/18 04:04:16;;;;;;;8.38;2.60;;;486.40;1792.00;;;;;;5098548;28;20095;-78
2022/07/18 04:06:41;;;;;;;7.72;2.78;;;486.40;1766.40;;;;;;5113982;28;20012;-78
2022/07/18 04:09:07;;;;;;;4.95;2.53;;;486.60;1792.00;;;;;;5116809;28;20051;-77
2022/07/18 04:11:33;;;;;;;5.38;2.50;;;486.60;1792.00;;;;;;5116751;28;20020;-77
2022/07/18 04:13:58;;;;;;;10.02;2.97;;;486.70;1766.40;;;;;;5116826;28;20132;-78
2022/07/18 04:16:24;;;;;;;9.90;2.65;;;486.80;1792.00;;;;;;5098428;28;20411;-77
2022/07/18 04:18:50;;;;;;;7.35;2.95;;;486.80;1817.60;;;;;;5115997;28;20063;-78
2022/07/18 04:21:17;;;;;;;5.25;2.60;;;486.80;1817.60;;;;;;5116580;28;20467;-77
2022/07/18 04:23:43;;;;;;;7.82;3.05;;;486.90;1868.80;;;;;;5113662;28;20023;-77
2022/07/18 04:26:09;;;;;;;9.90;3.13;;;486.80;1894.40;;;;;;5116263;28;20478;-78
2022/07/18 04:28:35;;;;;;;10.70;3.10;;;487.00;1894.40;;;;;;5097160;28;20059;-78
2022/07/18 04:31:01;;;;;;;6.65;2.85;;;486.90;1894.40;;;;;;5116470;28;20069;-81
2022/07/18 04:33:27;;;;;;;10.23;3.00;;;486.90;1868.80;;;;;;5116562;28;20016;-79
2022/07/18 04:35:53;;;;;;;9.32;3.10;;;486.90;1843.20;;;;;;5098524;28;20026;-80
2022/07/18 04:38:19;;;;;;;6.65;2.80;;;487.00;1817.60;;;;;;5106884;27;20123;-81
2022/07/18 04:40:45;;;;;;;7.43;3.00;;;487.00;1792.00;;;;;;5109151;28;20020;-79
2022/07/18 04:43:10;;;;;;;4.72;2.53;;;487.10;1792.00;;;;;;5116451;28;20020;-78
2022/07/18 04:45:37;;;;;;;9.40;2.90;;;487.20;1792.00;;;;;;5098335;28;20026;-79
2022/07/18 04:48:04;;;;;;;6.38;2.97;;;487.30;1766.40;;;;;;5098315;28;20026;-85
2022/07/18 04:50:31;;;;;;;6.55;2.80;;;487.30;1766.40;;;;;;5098052;28;20051;-78
2022/07/18 04:52:57;;;;;;;6.22;2.25;;;512.10;1766.40;;;;;;5116236;28;20072;-78
2022/07/18 04:55:24;;;;;;;8.68;2.78;;;512.20;1766.40;;;;;;5115763;28;20027;-80
2022/07/18 04:57:51;;;;;;;8.48;2.72;;;512.20;1766.40;;;;;;5097939;28;20119;-79
2022/07/18 05:00:20;;;;;;;6.47;2.80;;;512.20;1740.80;;;;;;5097929;28;20024;-79
2022/07/18 05:02:49;;;;;;;8.35;2.45;;;512.40;1740.80;;;;;;5095726;28;20028;-82
2022/07/18 05:05:17;;;;;;;4.38;2.35;;;512.40;1740.80;;;;;;5098430;28;20081;-86
2022/07/18 05:07:45;;;;;;;5.05;2.40;;;512.60;1689.60;;;;;;5096730;28;20016;-83
2022/07/18 05:10:13;;;;;;;7.45;2.55;;;512.70;1664.00;;;;;;5116576;28;20049;-83
2022/07/18 05:12:41;;;;;;;5.25;2.30;;;512.90;1664.00;;;;;;5103713;27;20023;-82
2022/07/18 05:15:14;;;;;;;7.72;2.40;;;537.60;1689.60;;;;;;5110508;27;20023;-85
2022/07/18 05:17:40;;;;;;;4.88;2.35;;;537.80;1689.60;;;;;;5104682;28;20053;-78
2022/07/18 05:20:08;;;;;;;8.50;2.88;;;537.80;1664.00;;;;;;5095524;28;20032;-87
2022/07/18 05:22:36;;;;;;;4.90;2.38;;;537.90;1638.40;;;;;;5098281;28;20023;-78
2022/07/18 05:25:04;;;;;;;8.02;2.35;;;538.10;1638.40;;;;;;5115506;28;20499;-82
2022/07/18 05:27:30;;;;;;;5.60;2.50;;;538.10;1612.80;;;;;;5115651;28;20050;-78
2022/07/18 05:29:55;;;;;;;6.50;2.03;;;538.20;1612.80;;;;;;5115815;28;20461;-86
2022/07/18 05:32:21;;;;;;;5.88;2.75;;;538.40;1612.80;;;;;;5127328;27;20034;-81
2022/07/18 05:34:47;;;;;;;4.53;2.50;;;538.50;1612.80;;;;;;5124364;27;20024;-83
2022/07/18 05:37:13;;;;;;;5.30;2.55;;;538.50;1587.20;;;;;;5121039;27;20016;-82
2022/07/18 05:39:39;;;;;;;3.15;1.90;;;563.30;1587.20;;;;;;5115698;28;20031;-81
2022/07/18 05:42:05;;;;;;;5.78;2.70;;;563.30;1561.60;;;;;;5097178;28;20020;-80
2022/07/18 05:44:30;;;;;;;3.42;1.92;;;563.50;1561.60;;;;;;5120497;27;20107;-79
2022/07/18 05:46:56;;;;;;;31.38;6.07;;;563.50;1561.60;;;;;;5099187;28;20034;-80
2022/07/18 05:49:22;;;;;;;69.90;9.02;;;563.60;1536.00;;;;;;5096657;28;20419;-78
2022/07/18 05:51:48;;;;;;;61.78;7.47;;;563.70;1510.40;;;;;;5096754;28;20016;-80
2022/07/18 05:54:18;;;;;;;24.17;4.38;;;563.70;1510.40;;;;;;5114823;28;20480;-78
2022/07/18 05:56:51;;;;;;;44.88;6.72;;;563.80;1510.40;;;;;;5121533;27;20039;-78
2022/07/18 05:59:18;;;;;;;19.55;4.03;;;564.10;1510.40;;;;;;5103112;28;20035;-78
2022/07/18 06:01:44;;;;;;;6.22;2.60;;;588.80;1484.80;;;;;;5096244;28;20366;-78
2022/07/18 06:04:10;;;;;;;3.42;1.92;;;588.90;1459.20;;;;;;5096555;28;20084;-78
2022/07/18 06:06:36;;;;;;;4.13;2.05;;;589.00;1459.20;;;;;;5092643;28;20020;-78
2022/07/18 06:09:02;;;;;;;5.25;2.13;;;589.00;1433.60;;;;;;5086269;28;20027;-78
2022/07/18 06:11:28;;;;;;;25.58;2.92;;;589.10;1433.60;;;;;;5096366;28;20019;-78
2022/07/18 06:13:54;;;;;;;10.73;2.97;;;589.30;1433.60;;;;;;5088313;28;20024;-79
2022/07/18 06:16:20;;;;;;;4.57;1.70;;;589.30;1408.00;;;;;;5103931;28;20050;-79
2022/07/18 06:18:45;;;;;;;4.13;1.90;;;589.40;1408.00;;;;;;5089922;28;20032;-80
2022/07/18 06:21:11;;;;;;;3.17;1.65;;;589.60;1408.00;;;;;;5119136;27;20438;-81
2022/07/18 06:23:37;;;;;;;4.80;2.15;;;589.70;1408.00;;;;;;5116730;27;20041;-80
2022/07/18 06:26:03;;;;;;;6.10;1.90;;;589.70;1382.40;;;;;;5086704;28;20034;-80
2022/07/18 06:28:29;;;;;;;4.85;1.95;;;614.40;1382.40;;;;;;5108577;28;20034;-80
2022/07/18 06:30:55;;;;;;;6.85;2.55;;;614.50;1408.00;;;;;;5113521;28;20020;-82
2022/07/18 06:33:21;;;;;;;7.25;2.22;;;614.50;1356.80;;;;;;5096284;28;20076;-82
2022/07/18 06:35:47;;;;;;;7.22;2.65;;;614.70;1356.80;;;;;;5096551;28;20023;-81
2022/07/18 06:38:14;;;;;;;5.50;1.92;;;614.80;1356.80;;;;;;5096249;28;20085;-78
2022/07/18 06:40:40;;;;;;;9.02;1.90;;;614.80;1331.20;;;;;;5096532;28;20134;-83
2022/07/18 06:43:06;;;;;;;11.18;2.15;;;614.90;1305.60;;;;;;5083044;28;20045;-81
2022/07/18 06:45:32;;;;;;;3.40;1.70;;;615.00;1305.60;;;;;;5089902;28;20024;-81
2022/07/18 06:47:58;;;;;;;5.75;2.22;;;615.00;1280.00;;;;;;5101974;28;20032;-81
2022/07/18 06:50:24;;;;;;;4.05;1.70;;;615.10;1280.00;;;;;;5080013;28;20026;-79
2022/07/18 06:52:50;;;;;;;6.47;2.00;;;615.20;1254.40;;;;;;5124661;27;20515;-79
2022/07/18 06:55:16;;;;;;;3.70;2.25;;;615.30;1280.00;;;;;;5117353;27;20027;-83
2022/07/18 06:57:43;;;;;;;4.57;2.10;;;640.10;1305.60;;;;;;5128485;27;20110;-79
2022/07/18 07:00:11;;;;;;;5.60;2.20;;;640.10;1305.60;;;;;;5088858;28;20035;-79
2022/07/18 07:02:43;;;;;;;5.22;2.10;;;640.30;1280.00;;;;;;5088598;28;20023;-79
2022/07/18 07:05:10;;;;;;;6.50;2.20;;;640.40;1280.00;;;;;;5095616;28;20089;-78
2022/07/18 07:07:36;;;;;;;3.72;2.13;;;640.60;1254.40;;;;;;5113785;28;20022;-79
2022/07/18 07:10:02;;;;;;;5.50;2.38;;;640.70;1228.80;;;;;;5095497;28;20039;-79
2022/07/18 07:12:27;;;;;;;6.45;2.22;;;640.80;1228.80;;;;;;5095612;28;20070;-78
2022/07/18 07:14:53;;;;;;;8.88;2.15;;;665.60;1228.80;;;;;;5113404;28;20016;-78
2022/07/18 07:17:19;;;;;;;4.55;1.73;;;665.60;1228.80;;;;;;5111956;28;20485;-79
2022/07/18 07:19:45;;;;;;;3.20;1.80;;;665.70;1228.80;;;;;;5094926;28;20493;-79
2022/07/18 07:22:10;;;;;;;4.00;1.73;;;665.90;1203.20;;;;;;5095873;28;20094;-80
2022/07/18 07:24:38;;;;;;;3.83;1.70;;;666.00;1152.00;;;;;;5114155;28;20031;-83
2022/07/18 07:27:04;;;;;;;3.70;1.90;;;666.10;1152.00;;;;;;5112727;28;20492;-81
2022/07/18 07:29:29;;;;;;;8.57;2.50;;;666.10;1177.60;;;;;;5113764;28;20035;-81
2022/07/18 07:31:55;;;;;;;3.17;1.60;;;666.30;1177.60;;;;;;5117201;28;20024;-86
2022/07/18 07:34:21;;;;;;;2.33;1.60;;;666.50;1152.00;;;;;;5116857;28;20125;-85
2022/07/18 07:36:47;;;;;;;4.30;1.50;;;691.20;1152.00;;;;;;5087686;28;20042;-86
2022/07/18 07:39:12;;;;;;;5.97;1.80;;;691.30;1126.40;;;;;;5086472;28;20371;-85
2022/07/18 07:41:38;;;;;;;2.88;1.55;;;691.40;1126.40;;;;;;5118398;28;20020;-86
2022/07/18 07:44:04;;;;;;;5.00;1.60;;;691.60;1100.80;;;;;;5100435;28;20039;-88
2022/07/18 07:46:30;;;;;;;7.88;1.98;;;691.50;1100.80;;;;;;5099929;28;20377;-84
2022/07/18 07:48:56;;;;;;;3.60;1.70;;;691.70;1100.80;;;;;;5117887;28;20488;-80
2022/07/18 07:51:21;;;;;;;3.92;1.85;;;691.80;1075.20;;;;;;5117620;28;20102;-85
2022/07/18 07:53:47;;;;;;;3.25;2.03;;;691.90;1075.20;;;;;;5099203;28;20042;-85
2022/07/18 07:56:13;;;;;;;6.53;2.20;;;691.90;1049.60;;;;;;5119752;27;20052;-86
2022/07/18 07:58:38;;;;;;;4.75;1.83;;;691.90;1049.60;;;;;;5111776;28;20477;-78
2022/07/18 08:01:04;;;;;;;6.93;1.73;;;692.00;1049.60;;;;;;5099359;28;20114;-78
2022/07/18 08:03:30;;;;;;;3.20;1.80;;;716.80;1075.20;;;;;;5099031;28;20508;-85
2022/07/18 08:05:56;;;;;;;3.55;1.90;;;716.80;1075.20;;;;;;5118053;28;20019;-88
2022/07/18 08:08:22;;;;;;;2.63;1.73;;;716.80;1049.60;;;;;;5099903;28;20030;-81
2022/07/18 08:10:48;;;;;;;4.93;1.70;;;716.90;1049.60;;;;;;5098780;28;20038;-83
2022/07/18 08:13:14;;;;;;;4.32;1.65;;;716.90;1049.60;;;;;;5091846;28;20046;-86
2022/07/18 08:15:40;;;;;;;11.55;2.47;;;717.00;1049.60;;;;;;5110766;28;20066;-81
2022/07/18 08:18:06;;;;;;;6.15;2.65;;;717.10;1049.60;;;;;;5123114;27;20575;-88
2022/07/18 08:20:33;;;;;;;11.38;2.92;;;717.10;1024.00;;;;;;5110453;27;20054;-86
2022/07/18 08:23:02;;;;;;;5.53;2.00;;;717.30;1024.00;;;;;;5110850;27;20393;-81
2022/07/18 08:25:30;;;;;;;3.42;1.63;;;717.30;1024.00;;;;;;5111018;27;20035;-84
2022/07/18 08:27:57;;;;;;;2.38;1.40;;;717.30;998.40;;;;;;5125445;27;20020;-85
2022/07/18 08:30:23;;;;;;;5.65;1.92;;;717.20;998.40;;;;;;5112916;27;20028;-88
2022/07/18 08:32:49;;;;;;;2.80;1.70;;;717.30;1024.00;;;;;;5115611;27;20126;-88
2022/07/18 08:35:15;;;;;;;4.05;1.42;;;717.40;998.40;;;;;;5135247;27;20504;-83
2022/07/18 08:37:40;;;;;;;5.57;1.55;;;717.40;998.40;;;;;;5107045;27;20040;-87
2022/07/18 08:40:07;;;;;;;7.03;2.22;;;717.50;998.40;;;;;;5124493;27;20108;-85
2022/07/18 08:42:34;;;;;;;3.33;1.60;;;717.50;998.40;;;;;;5109070;27;20047;-80
2022/07/18 08:45:02;;;;;;;5.72;1.98;;;717.50;998.40;;;;;;5115338;28;20095;-86
2022/07/18 08:47:30;;;;;;;4.43;1.70;;;717.60;1024.00;;;;;;5098433;28;20500;-83
2022/07/18 08:49:56;;;;;;;3.70;1.67;;;742.40;1024.00;;;;;;5116648;28;20023;-81
2022/07/18 08:52:22;;;;;;;2.78;1.55;;;717.70;972.80;;;;;;5116676;28;20062;-78
2022/07/18 08:54:50;;;;;;;5.55;2.70;;;717.70;972.80;;;;;;5116751;28;20024;-84
2022/07/18 08:57:17;;;;;;;12.57;2.08;;;742.40;998.40;;;;;;5099044;28;20051;-81
2022/07/18 08:59:44;;;;;;;4.10;2.00;;;742.40;1024.00;;;;;;5116150;28;20175;-78
2022/07/18 09:02:11;;;;;;;3.72;1.65;;;742.40;1024.00;;;;;;5115683;28;20390;-81
2022/07/18 09:04:39;;;;;;;4.28;2.10;;;742.40;1024.00;;;;;;5116078;28;20023;-78
2022/07/18 09:07:08;;;;;;;7.72;2.10;;;717.70;972.80;;;;;;5089492;28;20035;-80
2022/07/18 09:09:35;;;;;;;8.38;1.83;;;742.40;998.40;;;;;;5097392;28;20038;-81
2022/07/18 09:12:09;;;;;;;4.68;1.63;;;742.50;1024.00;;;;;;5084401;28;20032;-78
2022/07/18 09:14:39;;;;;;;5.03;1.77;;;742.40;998.40;;;;;;5082359;28;20028;-78
2022/07/18 09:17:06;;;;;;;8.73;2.63;;;717.70;972.80;;;;;;5119361;27;20027;-78
2022/07/18 09:19:32;;;;;;;7.22;1.50;;;742.50;998.40;;;;;;5115638;27;20038;-79
2022/07/18 09:22:24;;;;;;;4.95;1.63;;;742.50;998.40;;;;;;5115638;28;20028;-79
2022/07/18 09:25:11;;;;;;;5.35;2.17;;;742.60;998.40;;;;;;5096745;28;20036;-80
2022/07/18 09:27:40;;;;;;;3.33;1.63;;;742.80;998.40;;;;;;5082708;28;20024;-78
2022/07/18 09:30:35;;;;;;;3.03;1.83;;;742.70;972.80;;;;;;5097191;28;20028;-77
2022/07/18 09:33:03;;;;;;;4.07;1.80;;;742.70;972.80;;;;;;5110226;28;20042;-78
2022/07/18 09:35:51;;;;;;;5.88;1.80;;;742.80;972.80;;;;;;5114827;28;20088;-79
2022/07/18 09:38:21;;;;;;;4.93;1.65;;;743.00;972.80;;;;;;5096108;28;20047;-85
2022/07/18 09:40:52;;;;;;;4.40;1.52;;;743.10;947.20;;;;;;5095422;28;20097;-82
2022/07/18 09:43:21;;;;;;;4.47;1.60;;;743.30;921.60;;;;;;5114955;28;20027;-79
2022/07/18 09:45:55;;;;;;;4.82;1.60;;;768.10;896.00;;;;;;5102791;28;20545;-78
2022/07/18 09:48:26;;;;;;;5.93;1.88;;;768.40;870.40;;;;;;5113378;28;20023;-78
2022/07/18 09:51:06;;;;;;;5.75;1.90;;;768.40;844.80;;;;;;5097066;28;20028;-81
2022/07/18 09:53:42;;;;;;;4.60;1.90;;;768.40;870.40;;;;;;5088620;28;20073;-79
2022/07/18 09:56:07;;;;;;;;;;;768.50;870.40;;;;;;5092456;27;20043;-79
2022/07/18 09:58:50;;;;;;;2.88;1.50;;;768.70;870.40;;;;;;5109176;28;20006;-80
2022/07/18 10:01:16;;;;;;;5.13;1.70;;;793.60;896.00;;;;;;5096441;28;20034;-78
2022/07/18 10:03:43;;;;;;;3.00;1.42;;;793.70;896.00;;;;;;5116680;27;20051;-82
2022/07/18 10:06:10;;;;;;;4.95;1.60;;;793.90;896.00;;;;;;5093141;28;20282;-81
2022/07/18 10:08:36;;;;;;;5.05;1.70;;;793.80;896.00;;;;;;5094116;28;20032;-84
2022/07/18 10:11:05;;;;;;;2.15;1.30;;;793.70;870.40;;;;;;5115098;28;20069;-80
2022/07/18 10:13:32;;;;;;;4.70;1.90;;;793.80;870.40;;;;;;5096186;28;20056;-80
2022/07/18 10:15:59;;;;;;;4.50;1.35;;;793.90;844.80;;;;;;5088043;28;20024;-77
2022/07/18 10:18:30;;;;;;;5.82;1.70;;;794.20;870.40;;;;;;5094912;28;20020;-78
2022/07/18 10:21:02;;;;;;;2.78;1.60;;;794.20;844.80;;;;;;5115279;27;20023;-78
2022/07/18 10:23:33;;;;;;;3.20;1.55;;;794.40;870.40;;;;;;5114638;28;20023;-79
2022/07/18 10:26:19;;;;;;;4.22;1.50;;;794.40;870.40;;;;;;5114223;28;20141;-78
2022/07/18 10:28:56;;;;;;;1.80;1.25;;;794.40;819.20;;;;;;5114744;28;20027;-80
2022/07/18 10:31:59;;;;;;;2.60;1.45;;;819.30;819.20;;;;;;5116696;27;20028;-80
2022/07/18 10:34:36;;;;;;;2.70;1.52;;;819.30;844.80;;;;;;5095784;28;20064;-79
2022/07/18 10:37:03;;;;;;;10.95;2.80;;;819.40;819.20;;;;;;5112207;28;20047;-76
2022/07/18 10:39:35;;;;;;;2.35;1.58;;;819.50;844.80;;;;;;5113721;28;20034;-81
2022/07/18 10:42:01;;;;;;;3.97;1.40;;;819.60;819.20;;;;;;5092838;28;20084;-83
2022/07/18 10:44:29;;;;;;;3.35;1.50;;;819.70;844.80;;;;;;5095419;28;20024;-83
2022/07/18 10:49:48;;;;;;;2.70;1.70;;;819.80;844.80;;;;;;5122509;27;20110;-81
2022/07/18 10:52:26;;;;;;;3.60;1.75;;;819.80;844.80;;;;;;5094905;28;20811;-81
2022/07/18 10:57:30;;;;;;;2.38;1.58;;;819.80;844.80;;;;;;5112797;28;21180;-80
2022/07/18 11:00:22;;;;;;;2.83;1.50;;;819.90;844.80;;;;;;5113062;28;20096;-82
2022/07/18 11:03:00;;;;;;;4.28;1.60;;;820.10;819.20;;;;;;5108273;28;20032;-80
2022/07/18 11:05:26;;;;;;;2.50;1.48;;;844.90;844.80;;;;;;5092782;28;20123;-78
2022/07/18 11:07:58;;;;;;;2.72;1.50;;;844.90;844.80;;;;;;5112293;28;20157;-78
2022/07/18 11:15:56;;;;;;;3.92;1.48;;;845.10;844.80;;;;;;5101012;28;20038;-80
2022/07/18 11:18:22;;;;;;;3.17;1.67;;;845.30;844.80;;;;;;5081704;28;20024;-80
2022/07/18 11:20:48;;;;;;;3.30;1.67;;;845.10;819.20;;;;;;5113651;28;20076;-80
2022/07/18 11:23:23;;;;;;;3.08;1.40;;;845.20;844.80;;;;;;5095537;28;20153;-77
2022/07/18 11:25:51;;;;;;;5.05;1.70;;;845.10;819.20;;;;;;5113526;28;20032;-79
2022/07/18 11:28:21;;;;;;;3.10;1.55;;;845.10;819.20;;;;;;5095246;28;20131;-80
2022/07/18 11:31:00;;;;;;;4.80;1.63;;;845.00;819.20;;;;;;5115749;28;20015;-79
2022/07/18 11:33:29;;;;;;;2.90;1.60;;;845.20;819.20;;;;;;5110238;28;20026;-80
2022/07/18 11:36:14;;;;;;;5.20;1.40;;;845.20;844.80;;;;;;5116576;28;20034;-81
2022/07/18 11:38:47;;;;;;;3.35;1.80;;;;;;;;;;5113707;28;20036;-80
2022/07/18 11:41:13;;;;;;;3.22;1.85;;;845.30;819.20;;;;;;5113259;28;20094;-82
2022/07/18 11:43:39;;;;;;;4.63;1.80;;;845.50;819.20;;;;;;5093423;28;20489;-82
2022/07/18 11:46:06;;;;;;;3.10;1.70;;;845.50;844.80;;;;;;5095196;28;20476;-82
2022/07/18 11:48:37;;;;;;;4.50;2.05;;;845.40;819.20;;;;;;5113429;28;20491;-86
2022/07/18 11:51:19;;;;;;;5.95;2.05;;;845.40;819.20;;;;;;5113294;28;20011;-83
2022/07/18 11:53:53;;;;;;;4.97;2.03;;;845.50;844.80;;;;;;5094185;28;20380;-79
2022/07/18 11:56:21;;;;;;;4.30;1.52;;;845.40;844.80;;;;;;5093213;28;20040;-79
2022/07/18 11:58:48;;;;;;;7.93;1.83;;;845.30;819.20;;;;;;5094770;28;20055;-80
2022/07/18 12:01:15;;;;;;;3.50;1.60;;;845.40;819.20;;;;;;5094810;28;20426;-80
2022/07/18 12:03:51;;;;;;;2.40;1.58;;;845.30;819.20;;;;;;5094680;28;20026;-82
2022/07/18 12:06:22;;;;;;;4.10;1.88;;;845.60;819.20;;;;;;5094312;28;20051;-78
2022/07/18 12:08:51;;;;;;;2.00;1.38;;;845.60;819.20;;;;;;5112673;28;20152;-78
2022/07/18 12:11:34;;;;;;;2.78;1.75;;;845.40;819.20;;;;;;5112848;28;20020;-78
2022/07/18 12:14:08;;;;;;;2.85;1.70;;;845.20;819.20;;;;;;5094625;28;20036;-78
2022/07/18 12:16:46;;;;;;;5.47;1.63;;;845.40;793.60;;;;;;5100621;28;20107;-79
2022/07/18 12:19:14;;;;;;;8.43;2.35;;;845.50;819.20;;;;;;5098032;28;20522;-79
2022/07/18 12:21:51;;;;;;;4.20;2.20;;;845.70;819.20;;;;;;5095017;28;20177;-79
2022/07/18 12:24:37;;;;;;;8.02;2.10;;;870.50;819.20;;;;;;5116284;28;20114;-79
2022/07/18 12:27:18;;;;;;;5.72;1.70;;;870.50;819.20;;;;;;5116654;27;20024;-78
2022/07/18 12:30:04;;;;;;;3.88;2.17;;;870.50;819.20;;;;;;5098295;28;20055;-78
2022/07/18 12:33:01;;;;;;;3.65;1.90;;;845.60;793.60;;;;;;5104425;28;20082;-78
2022/07/18 12:35:35;;;;;;;4.85;1.50;;;845.20;793.60;;;;;;5082299;28;20051;-78
2022/07/18 12:38:17;;;;;;;3.05;1.52;;;845.50;793.60;;;;;;5086453;28;20043;-78
2022/07/18 12:40:53;;;;;;;4.32;1.95;;;845.70;793.60;;;;;;5115950;28;20015;-78